Météo Cheval Rigon

 

Relevés d'aujourd'hui



 

16/6/21
Time         Wind Dir   Wind Spd  Wind Gust   Humidity       Temp   Tot Rain Wind Chill  Dew Point   Barom SL Humidity R Temp Out R Tot Rain R   WindCh R   Dew Pt R SL Barom R Temp Out H Temp Out L  DailyRain   HourRain   24HrRain   RainRate  MonthRain
                          km/hr      km/hr          %         C         mm         C         C         mb       %/hr      C/hr      mm/hr      C/hr      C/hr      mm/hr         C         C         mm         mm         mm      mm/hr         mm
0:00               90          0          5         66       20.1     399.00       20.1       13.5    1015.42       -1.0      -0.46      0.000      -0.46      -0.61     -0.026       20.1       20.1       0.00       0.00       0.00      0.000      30.60
0:15               83          0          5         67       19.8     399.00       19.8       13.5    1015.35        0.2      -0.55      0.000      -0.55      -0.44     -0.085       20.1       19.8       0.00       0.00       0.00      0.000      30.60
0:30               95          3         10         63       19.8     399.00       19.8       12.5    1015.18       -3.4      -0.46      0.000      -0.46      -1.21     -0.216       20.1       19.7       0.00       0.00       0.00      0.000      30.60
0:45               90          2          5         62       19.9     399.00       19.9       12.5    1015.11       -3.5      -0.22      0.000      -0.22      -1.02     -0.235       20.1       19.7       0.00       0.00       0.00      0.000      30.60
1:00               86          5          5         61       19.8     399.00       19.8       12.1    1015.11       -3.7      -0.27      0.000      -0.27      -1.13     -0.184       20.1       19.7       0.00       0.00       0.00      0.000      30.60
1:15               89          3          5         62       19.8     399.00       19.8       12.3    1015.04       -2.1      -0.26      0.000      -0.26      -0.72     -0.204       20.1       19.7       0.00       0.00       0.00      0.000      30.60
1:30               88          3          5         63       19.6     399.00       19.6       12.4    1014.98       -0.8      -0.35      0.000      -0.35      -0.50     -0.221       20.1       19.6       0.00       0.00       0.00      0.000      30.60
1:45               82          0          8         64       19.5     399.00       19.5       12.5    1014.77        0.3      -0.37      0.000      -0.37      -0.26     -0.348       20.1       19.5       0.00       0.00       0.00      0.000      30.60
2:00               87          0         10         65       19.9     399.00       19.9       13.2    1014.67        1.2       0.09      0.000       0.09       0.39     -0.361       20.1       19.5       0.00       0.00       0.00      0.000      30.60
2:15               84          0          5         66       19.5     399.00       19.5       13.0    1014.50        2.0      -0.33      0.000      -0.33       0.18     -0.432       20.1       19.5       0.00       0.00       0.00      0.000      30.60
2:30               84          0          3         68       19.1     399.00       19.1       13.0    1014.37        3.3      -0.64      0.000      -0.64       0.17     -0.448       20.1       19.1       0.00       0.00       0.00      0.000      30.60
2:45               84          0          2         70       18.6     399.00       18.6       13.0    1014.33        4.4      -0.90      0.000      -0.90       0.14     -0.381       20.1       18.6       0.00       0.00       0.00      0.000      30.60
3:00               84          0          0         73       18.0     399.00       18.0       13.1    1014.20        5.9      -1.23      0.000      -1.23       0.14     -0.427       20.1       18.0       0.00       0.00       0.00      0.000      30.60
3:15               84          0          0         74       17.9     399.00       17.9       13.2    1014.03        5.4      -0.99      0.000      -0.99       0.24     -0.486       20.1       17.8       0.00       0.00       0.00      0.000      30.60
3:30               85          2          3         73       18.4     399.00       18.4       13.5    1013.79        3.3      -0.37      0.000      -0.37       0.39     -0.578       20.1       17.8       0.00       0.00       0.00      0.000      30.60
3:45               85          2          2         72       18.6     399.00       18.6       13.5    1013.59        1.7      -0.09      0.000      -0.09       0.30     -0.631       20.1       17.8       0.00       0.00       0.00      0.000      30.60
4:00               82          0          5         69       19.6     399.00       19.6       13.8    1013.52       -1.3       0.84      0.000       0.84       0.53     -0.551       20.1       17.8       0.00       0.00       0.00      0.000      30.60
4:15               82          0          3         68       19.7     399.00       19.7       13.7    1013.32       -1.7       0.71      0.000       0.71       0.32     -0.615       20.1       17.8       0.00       0.00       0.00      0.000      30.60
4:30               82          0          2         68       19.3     399.00       19.3       13.3    1013.18       -1.3       0.22      0.000       0.22      -0.07     -0.599       20.1       17.8       0.00       0.00       0.00      0.000      30.60
4:45               90          0          5         67       19.9     399.00       19.9       13.6    1013.01       -1.9       0.68      0.000       0.68       0.23     -0.607       20.1       17.8       0.00       0.00       0.00      0.000      30.60
5:00               90          0          0         66       19.8     399.00       19.8       13.3    1013.05       -2.4       0.41      0.000       0.41      -0.13     -0.442       20.1       17.8       0.00       0.00       0.00      0.000      30.60
5:15               90          0          2         68       19.3     399.00       19.3       13.3    1013.08       -0.1      -0.07      0.000      -0.07      -0.07     -0.308       20.1       17.8       0.00       0.00       0.00      0.000      30.60
5:30               90          0          0         70       18.8     399.00       18.8       13.2    1012.91        1.7      -0.53      0.000      -0.53      -0.12     -0.389       20.1       17.8       0.00       0.00       0.00      0.000      30.60
5:45               90          0          0         71       18.4     399.00       18.4       13.1    1012.98        2.2      -0.71      0.000      -0.71      -0.19     -0.248       20.1       17.8       0.00       0.00       0.00      0.000      30.60
6:00               90          0          0         72       18.3     399.00       18.3       13.2    1013.05        2.5      -0.66      0.000      -0.66      -0.07     -0.143       20.1       17.8       0.00       0.00       0.00      0.000      30.60
6:15               90          0          0         74       18.1     399.00       18.1       13.4    1013.11        3.8      -0.76      0.000      -0.76       0.08     -0.046       20.1       17.8       0.00       0.00       0.00      0.000      30.60
6:30               90          0          0         74       18.2     399.00       18.2       13.5    1013.08        2.9      -0.49      0.000      -0.49       0.16     -0.060       20.1       17.8       0.00       0.00       0.00      0.000      30.60
6:45               90          0          0         75       18.4     399.00       18.4       13.9    1012.91        3.3      -0.19      0.000      -0.19       0.52     -0.200       20.1       17.8       0.00       0.00       0.00      0.000      30.60
7:00               90          0          0         75       18.4     399.00       18.4       13.9    1012.95        2.5      -0.09      0.000      -0.09       0.46     -0.124       20.1       17.8       0.00       0.00       0.00      0.000      30.60
7:15               90          0          0         76       18.7     399.00       18.7       14.4    1012.95        2.8       0.17      0.000       0.17       0.76     -0.102       20.1       17.8       0.00       0.00       0.00      0.000      30.60
7:30              167          0          0         76       19.1     399.00       19.1       14.8    1012.91        2.1       0.48      0.000       0.48       0.91     -0.104       20.1       17.8       0.00       0.00       0.00      0.000      30.60
7:45              167          0          2         74       19.7     399.00       19.7       15.0    1012.81       -0.2       0.92      0.000       0.92       0.86     -0.187       20.1       17.8       0.00       0.00       0.00      0.000      30.60
8:00              167          0          2         73       20.6     399.00       20.6       15.6    1012.47       -1.1       1.45      0.000       1.45       1.18     -0.445       20.6       17.8       0.00       0.00       0.00      0.000      30.60
8:15              167          0          0         73       21.0     399.00       21.0       16.0    1012.47       -0.9       1.52      0.000       1.52       1.27     -0.334       21.0       17.8       0.00       0.00       0.00      0.000      30.60
8:30              167          0          0         71       21.6     399.00       21.6       16.1    1012.37       -2.6       1.69      0.000       1.69       1.08     -0.354       21.6       17.8       0.00       0.00       0.00      0.000      30.60
8:45              167          0          0         71       22.5     399.00       22.5       17.0    1012.40       -2.1       2.14      0.000       2.14       1.60     -0.238       22.5       17.8       0.00       0.00       0.00      0.000      30.60
9:00              167          0          0         71       22.8     399.00       22.8       17.3    1012.40       -1.7       1.96      0.000       1.96       1.51     -0.182       22.8       17.8       0.00       0.00       0.00      0.000      30.60
9:15              167          0          0         71       23.0     399.00       23.0       17.5    1012.27       -1.2       1.68      0.000       1.68       1.35     -0.262       23.0       17.8       0.00       0.00       0.00      0.000      30.60
9:30              167          0          0         71       23.6     399.00       23.6       18.0    1012.13       -0.8       1.86      0.000       1.86       1.62     -0.318       23.6       17.8       0.00       0.00       0.00      0.000      30.60
9:45              209          0          5         69       24.3     399.00       24.3       18.2    1012.10       -2.6       2.04      0.000       2.04       1.38     -0.273       24.3       17.8       0.00       0.00       0.00      0.000      30.60
10:00             185          5          5         63       25.4     399.00       25.4       17.8    1012.13       -7.3       2.58      0.000       2.58       0.74     -0.176       25.4       17.8       0.00       0.00       0.00      0.000      30.60

 


 

 

 

Retour accueil